sensor_id;sensor_type;location;lat;lon;timestamp;pressure;altitude;pressure_sealevel;temperature;humidity
65756;BME280;52489;47.502;18.940;2023-02-18T00:00:53;98424.94;;;9.22;81.05
65756;BME280;52489;47.502;18.940;2023-02-18T00:01:56;98427.53;;;9.27;81.00
65756;BME280;52489;47.502;18.940;2023-02-18T00:02:59;98432.63;;;9.37;80.70
65756;BME280;52489;47.502;18.940;2023-02-18T00:04:02;98429.00;;;9.38;80.59
65756;BME280;52489;47.502;18.940;2023-02-18T00:05:05;98430.87;;;9.32;80.77
65756;BME280;52489;47.502;18.940;2023-02-18T00:06:21;98424.34;;;9.30;81.11
65756;BME280;52489;47.502;18.940;2023-02-18T00:07:24;98427.53;;;9.51;80.30
65756;BME280;52489;47.502;18.940;2023-02-18T00:08:27;98420.97;;;9.53;80.38
65756;BME280;52489;47.502;18.940;2023-02-18T00:09:31;98416.19;;;9.61;80.01
65756;BME280;52489;47.502;18.940;2023-02-18T00:10:34;98421.72;;;9.59;80.35
65756;BME280;52489;47.502;18.940;2023-02-18T00:11:37;98418.03;;;9.60;80.37
65756;BME280;52489;47.502;18.940;2023-02-18T00:12:41;98419.69;;;9.51;80.75
65756;BME280;52489;47.502;18.940;2023-02-18T00:13:51;98419.34;;;9.57;80.40
65756;BME280;52489;47.502;18.940;2023-02-18T00:14:55;98418.19;;;9.69;79.92
65756;BME280;52489;47.502;18.940;2023-02-18T00:16:03;98407.84;;;9.83;79.60
65756;BME280;52489;47.502;18.940;2023-02-18T00:17:08;98408.81;;;9.87;79.40
65756;BME280;52489;47.502;18.940;2023-02-18T00:18:11;98407.69;;;9.93;79.12
65756;BME280;52489;47.502;18.940;2023-02-18T00:19:16;98396.47;;;9.92;79.14
65756;BME280;52489;47.502;18.940;2023-02-18T00:20:19;98402.25;;;9.89;79.28
65756;BME280;52489;47.502;18.940;2023-02-18T00:21:23;98394.81;;;9.96;79.10
65756;BME280;52489;47.502;18.940;2023-02-18T00:22:26;98410.31;;;9.93;79.09
65756;BME280;52489;47.502;18.940;2023-02-18T00:23:29;98402.78;;;10.10;78.39
65756;BME280;52489;47.502;18.940;2023-02-18T00:24:32;98405.25;;;10.20;78.03
65756;BME280;52489;47.502;18.940;2023-02-18T00:25:35;98392.25;;;10.34;77.73
65756;BME280;52489;47.502;18.940;2023-02-18T00:26:38;98392.81;;;10.31;77.72
65756;BME280;52489;47.502;18.940;2023-02-18T00:27:41;98401.19;;;10.33;77.67
65756;BME280;52489;47.502;18.940;2023-02-18T00:28:45;98401.69;;;10.35;77.58
65756;BME280;52489;47.502;18.940;2023-02-18T00:29:50;98398.91;;;10.27;78.03
65756;BME280;52489;47.502;18.940;2023-02-18T00:30:53;98395.22;;;10.28;77.89
65756;BME280;52489;47.502;18.940;2023-02-18T00:31:56;98401.72;;;10.49;77.19
65756;BME280;52489;47.502;18.940;2023-02-18T00:32:59;98390.13;;;10.36;77.86
65756;BME280;52489;47.502;18.940;2023-02-18T00:34:04;98393.66;;;10.45;77.44
65756;BME280;52489;47.502;18.940;2023-02-18T00:35:08;98395.31;;;10.41;77.57
65756;BME280;52489;47.502;18.940;2023-02-18T00:36:14;98386.72;;;10.55;77.26
65756;BME280;52489;47.502;18.940;2023-02-18T00:37:18;98386.13;;;10.58;77.07
65756;BME280;52489;47.502;18.940;2023-02-18T00:38:24;98392.81;;;10.50;77.38
65756;BME280;52489;47.502;18.940;2023-02-18T00:39:27;98391.19;;;10.54;77.35
65756;BME280;52489;47.502;18.940;2023-02-18T00:40:30;98388.44;;;10.45;77.65
65756;BME280;52489;47.502;18.940;2023-02-18T00:41:34;98392.59;;;10.46;77.67
65756;BME280;52489;47.502;18.940;2023-02-18T00:42:37;98385.16;;;10.35;78.23
65756;BME280;52489;47.502;18.940;2023-02-18T00:43:40;98392.37;;;10.43;77.96
65756;BME280;52489;47.502;18.940;2023-02-18T00:44:43;98396.78;;;10.47;77.86
65756;BME280;52489;47.502;18.940;2023-02-18T00:45:47;98385.81;;;10.45;77.87
65756;BME280;52489;47.502;18.940;2023-02-18T00:46:50;98388.59;;;10.35;78.28
65756;BME280;52489;47.502;18.940;2023-02-18T00:47:53;98379.72;;;10.50;77.85
65756;BME280;52489;47.502;18.940;2023-02-18T00:48:56;98389.62;;;10.53;77.58
65756;BME280;52489;47.502;18.940;2023-02-18T00:49:59;98388.13;;;10.66;77.22
65756;BME280;52489;47.502;18.940;2023-02-18T00:51:03;98395.22;;;10.65;76.98
65756;BME280;52489;47.502;18.940;2023-02-18T00:52:07;98388.16;;;10.80;76.36
65756;BME280;52489;47.502;18.940;2023-02-18T00:53:10;98390.00;;;10.79;76.38
65756;BME280;52489;47.502;18.940;2023-02-18T00:54:13;98385.25;;;10.81;76.42
65756;BME280;52489;47.502;18.940;2023-02-18T00:55:16;98393.16;;;10.62;77.19
65756;BME280;52489;47.502;18.940;2023-02-18T00:56:19;98377.97;;;10.78;76.53
65756;BME280;52489;47.502;18.940;2023-02-18T00:57:23;98378.72;;;10.79;76.52
65756;BME280;52489;47.502;18.940;2023-02-18T00:58:26;98380.56;;;10.78;76.68
65756;BME280;52489;47.502;18.940;2023-02-18T00:59:29;98370.09;;;10.78;76.49
65756;BME280;52489;47.502;18.940;2023-02-18T01:00:32;98376.69;;;10.76;76.64
65756;BME280;52489;47.502;18.940;2023-02-18T01:01:36;98367.47;;;10.78;76.50
65756;BME280;52489;47.502;18.940;2023-02-18T01:02:39;98376.69;;;10.76;76.88
65756;BME280;52489;47.502;18.940;2023-02-18T01:03:42;98374.38;;;10.74;77.08
65756;BME280;52489;47.502;18.940;2023-02-18T01:04:46;98378.41;;;10.66;77.47
65756;BME280;52489;47.502;18.940;2023-02-18T01:05:49;98378.34;;;10.72;77.04
65756;BME280;52489;47.502;18.940;2023-02-18T01:06:53;98368.50;;;10.63;77.35
65756;BME280;52489;47.502;18.940;2023-02-18T01:07:56;98368.00;;;10.61;77.60
65756;BME280;52489;47.502;18.940;2023-02-18T01:08:59;98366.41;;;10.79;77.05
65756;BME280;52489;47.502;18.940;2023-02-18T01:10:04;98369.78;;;10.66;77.45
65756;BME280;52489;47.502;18.940;2023-02-18T01:11:09;98363.88;;;10.74;77.17
65756;BME280;52489;47.502;18.940;2023-02-18T01:12:12;98361.38;;;10.97;76.07
65756;BME280;52489;47.502;18.940;2023-02-18T01:13:15;98362.16;;;10.97;75.83
65756;BME280;52489;47.502;18.940;2023-02-18T01:14:18;98362.47;;;10.96;76.02
65756;BME280;52489;47.502;18.940;2023-02-18T01:15:22;98354.41;;;11.06;75.50
65756;BME280;52489;47.502;18.940;2023-02-18T01:16:25;98367.44;;;11.11;75.35
65756;BME280;52489;47.502;18.940;2023-02-18T01:17:29;98363.75;;;11.12;75.16
65756;BME280;52489;47.502;18.940;2023-02-18T01:18:32;98355.69;;;11.08;75.24
65756;BME280;52489;47.502;18.940;2023-02-18T01:19:35;98363.28;;;11.10;75.35
65756;BME280;52489;47.502;18.940;2023-02-18T01:20:41;98353.94;;;11.18;74.72
65756;BME280;52489;47.502;18.940;2023-02-18T01:21:44;98366.66;;;11.10;75.25
65756;BME280;52489;47.502;18.940;2023-02-18T01:22:47;98362.97;;;11.11;75.19
65756;BME280;52489;47.502;18.940;2023-02-18T01:23:51;98361.44;;;11.24;74.37
65756;BME280;52489;47.502;18.940;2023-02-18T01:24:54;98357.25;;;11.37;73.77
65756;BME280;52489;47.502;18.940;2023-02-18T01:25:57;98351.62;;;11.44;73.36
65756;BME280;52489;47.502;18.940;2023-02-18T01:27:00;98366.78;;;11.47;73.19
65756;BME280;52489;47.502;18.940;2023-02-18T01:28:05;98348.03;;;11.39;73.62
65756;BME280;52489;47.502;18.940;2023-02-18T01:29:09;98368.63;;;11.32;74.07
65756;BME280;52489;47.502;18.940;2023-02-18T01:30:14;98369.31;;;11.24;74.32
65756;BME280;52489;47.502;18.940;2023-02-18T01:31:18;98361.63;;;11.42;73.38
65756;BME280;52489;47.502;18.940;2023-02-18T01:32:21;98362.78;;;11.35;73.56
65756;BME280;52489;47.502;18.940;2023-02-18T01:33:24;98343.84;;;11.38;73.54
65756;BME280;52489;47.502;18.940;2023-02-18T01:34:27;98354.06;;;11.54;72.77
65756;BME280;52489;47.502;18.940;2023-02-18T01:35:31;98362.59;;;11.46;73.15
65756;BME280;52489;47.502;18.940;2023-02-18T01:36:34;98346.19;;;11.54;72.84
65756;BME280;52489;47.502;18.940;2023-02-18T01:37:37;98338.69;;;11.47;73.08
65756;BME280;52489;47.502;18.940;2023-02-18T01:38:40;98340.34;;;11.43;73.19
65756;BME280;52489;47.502;18.940;2023-02-18T01:39:43;98343.47;;;11.45;73.16
65756;BME280;52489;47.502;18.940;2023-02-18T01:40:49;98339.50;;;11.48;72.91
65756;BME280;52489;47.502;18.940;2023-02-18T01:41:53;98339.09;;;11.54;72.50
65756;BME280;52489;47.502;18.940;2023-02-18T01:42:56;98341.91;;;11.58;72.12
65756;BME280;52489;47.502;18.940;2023-02-18T01:44:20;98338.91;;;11.51;72.63
65756;BME280;52489;47.502;18.940;2023-02-18T01:46:37;98334.97;;;11.62;72.07
65756;BME280;52489;47.502;18.940;2023-02-18T01:47:40;98347.72;;;11.69;71.76
65756;BME280;52489;47.502;18.940;2023-02-18T01:48:48;98345.69;;;11.66;71.62
65756;BME280;52489;47.502;18.940;2023-02-18T01:49:52;98342.25;;;11.65;71.65
65756;BME280;52489;47.502;18.940;2023-02-18T01:51:01;98339.44;;;11.61;71.94
65756;BME280;52489;47.502;18.940;2023-02-18T01:52:08;98347.31;;;11.61;71.93
65756;BME280;52489;47.502;18.940;2023-02-18T01:53:17;98343.34;;;11.64;71.72
65756;BME280;52489;47.502;18.940;2023-02-18T01:54:49;98323.69;;;11.75;71.23
65756;BME280;52489;47.502;18.940;2023-02-18T01:55:53;98330.22;;;11.78;71.04
65756;BME280;52489;47.502;18.940;2023-02-18T01:57:03;98335.03;;;11.84;70.65
65756;BME280;52489;47.502;18.940;2023-02-18T01:58:08;98354.41;;;11.89;70.41
65756;BME280;52489;47.502;18.940;2023-02-18T01:59:20;98332.63;;;11.88;70.58
65756;BME280;52489;47.502;18.940;2023-02-18T02:00:25;98326.59;;;11.88;70.56
65756;BME280;52489;47.502;18.940;2023-02-18T02:01:30;98351.59;;;11.85;70.65
65756;BME280;52489;47.502;18.940;2023-02-18T02:02:36;98344.69;;;11.89;70.54
65756;BME280;52489;47.502;18.940;2023-02-18T02:03:40;98338.25;;;11.95;69.94
65756;BME280;52489;47.502;18.940;2023-02-18T02:04:43;98341.34;;;11.97;70.08
65756;BME280;52489;47.502;18.940;2023-02-18T02:05:46;98334.03;;;12.08;69.27
65756;BME280;52489;47.502;18.940;2023-02-18T02:06:49;98330.81;;;12.11;69.44
65756;BME280;52489;47.502;18.940;2023-02-18T02:07:53;98329.47;;;12.00;69.85
65756;BME280;52489;47.502;18.940;2023-02-18T02:08:59;98327.78;;;11.95;69.98
65756;BME280;52489;47.502;18.940;2023-02-18T02:10:07;98327.84;;;12.04;69.42
65756;BME280;52489;47.502;18.940;2023-02-18T02:17:46;98318.31;;;11.94;69.38
65756;BME280;52489;47.502;18.940;2023-02-18T02:18:35;98321.25;;;12.15;68.59
65756;BME280;52489;47.502;18.940;2023-02-18T02:20:05;98318.63;;;12.15;68.28
65756;BME280;52489;47.502;18.940;2023-02-18T02:23:12;98327.06;;;12.26;67.85
65756;BME280;52489;47.502;18.940;2023-02-18T02:26:40;98333.63;;;12.15;68.14
65756;BME280;52489;47.502;18.940;2023-02-18T02:31:39;98320.66;;;12.18;68.20
65756;BME280;52489;47.502;18.940;2023-02-18T02:35:37;98336.12;;;12.20;68.07
65756;BME280;52489;47.502;18.940;2023-02-18T02:36:54;98314.22;;;12.24;67.58
65756;BME280;52489;47.502;18.940;2023-02-18T02:39:38;98312.56;;;12.28;67.53
65756;BME280;52489;47.502;18.940;2023-02-18T02:46:44;98324.94;;;12.28;67.49
65756;BME280;52489;47.502;18.940;2023-02-18T02:47:55;98321.56;;;12.14;67.99
65756;BME280;52489;47.502;18.940;2023-02-18T02:50:42;98317.75;;;12.20;67.75
65756;BME280;52489;47.502;18.940;2023-02-18T02:52:21;98324.00;;;12.33;66.95
65756;BME280;52489;47.502;18.940;2023-02-18T02:53:29;98333.41;;;12.25;67.48
65756;BME280;52489;47.502;18.940;2023-02-18T02:54:32;98320.28;;;12.25;67.49
65756;BME280;52489;47.502;18.940;2023-02-18T02:55:36;98325.97;;;12.27;67.27
65756;BME280;52489;47.502;18.940;2023-02-18T02:56:39;98336.03;;;12.25;67.50
65756;BME280;52489;47.502;18.940;2023-02-18T02:59:08;98338.94;;;12.23;67.48
65756;BME280;52489;47.502;18.940;2023-02-18T03:00:14;98328.59;;;12.27;67.20
65756;BME280;52489;47.502;18.940;2023-02-18T03:01:41;98336.06;;;12.11;68.13
65756;BME280;52489;47.502;18.940;2023-02-18T03:03:16;98329.81;;;12.21;67.47
65756;BME280;52489;47.502;18.940;2023-02-18T03:04:53;98325.38;;;12.30;67.15
65756;BME280;52489;47.502;18.940;2023-02-18T03:06:26;98341.47;;;12.28;67.60
65756;BME280;52489;47.502;18.940;2023-02-18T03:10:35;98342.66;;;12.22;67.76
65756;BME280;52489;47.502;18.940;2023-02-18T03:11:50;98343.31;;;12.28;67.27
65756;BME280;52489;47.502;18.940;2023-02-18T03:15:39;98349.88;;;12.17;67.95
65756;BME280;52489;47.502;18.940;2023-02-18T03:17:15;98342.00;;;12.17;67.68
65756;BME280;52489;47.502;18.940;2023-02-18T03:18:36;98336.12;;;12.20;67.75
65756;BME280;52489;47.502;18.940;2023-02-18T03:20:01;98349.47;;;12.10;68.23
65756;BME280;52489;47.502;18.940;2023-02-18T03:22:17;98355.88;;;12.17;67.94
65756;BME280;52489;47.502;18.940;2023-02-18T03:23:35;98348.56;;;12.28;67.30
65756;BME280;52489;47.502;18.940;2023-02-18T03:24:57;98349.16;;;12.25;67.79
65756;BME280;52489;47.502;18.940;2023-02-18T03:26:03;98335.53;;;12.23;67.58
65756;BME280;52489;47.502;18.940;2023-02-18T03:28:41;98364.09;;;12.16;68.08
65756;BME280;52489;47.502;18.940;2023-02-18T03:29:50;98351.59;;;12.21;67.71
65756;BME280;52489;47.502;18.940;2023-02-18T03:30:59;98339.66;;;12.15;68.04
65756;BME280;52489;47.502;18.940;2023-02-18T03:32:06;98346.94;;;12.18;68.16
65756;BME280;52489;47.502;18.940;2023-02-18T03:33:14;98343.06;;;12.16;68.11
65756;BME280;52489;47.502;18.940;2023-02-18T03:34:40;98340.72;;;12.14;68.16
65756;BME280;52489;47.502;18.940;2023-02-18T03:35:46;98346.34;;;12.21;67.89
65756;BME280;52489;47.502;18.940;2023-02-18T03:36:50;98344.03;;;12.20;67.88
65756;BME280;52489;47.502;18.940;2023-02-18T03:38:18;98351.31;;;12.23;67.74
65756;BME280;52489;47.502;18.940;2023-02-18T03:39:26;98345.97;;;12.14;68.13
65756;BME280;52489;47.502;18.940;2023-02-18T03:40:30;98332.84;;;12.14;68.09
65756;BME280;52489;47.502;18.940;2023-02-18T03:41:34;98350.62;;;12.17;68.04
65756;BME280;52489;47.502;18.940;2023-02-18T03:42:37;98350.75;;;12.12;68.23
65756;BME280;52489;47.502;18.940;2023-02-18T03:43:51;98342.66;;;12.22;67.67
65756;BME280;52489;47.502;18.940;2023-02-18T03:44:55;98356.00;;;12.12;68.36
65756;BME280;52489;47.502;18.940;2023-02-18T03:45:58;98356.66;;;12.18;68.14
65756;BME280;52489;47.502;18.940;2023-02-18T03:47:02;98348.50;;;12.19;68.11
65756;BME280;52489;47.502;18.940;2023-02-18T03:48:05;98347.84;;;12.14;68.18
65756;BME280;52489;47.502;18.940;2023-02-18T03:49:13;98359.53;;;12.07;68.58
65756;BME280;52489;47.502;18.940;2023-02-18T03:50:16;98354.56;;;12.06;68.85
65756;BME280;52489;47.502;18.940;2023-02-18T03:51:20;98360.19;;;12.13;68.43
65756;BME280;52489;47.502;18.940;2023-02-18T03:52:23;98348.59;;;12.14;68.34
65756;BME280;52489;47.502;18.940;2023-02-18T03:53:26;98362.94;;;12.08;68.69
65756;BME280;52489;47.502;18.940;2023-02-18T03:54:29;98353.59;;;12.02;68.85
65756;BME280;52489;47.502;18.940;2023-02-18T03:55:32;98363.03;;;12.03;68.85
65756;BME280;52489;47.502;18.940;2023-02-18T03:56:36;98367.41;;;12.07;68.78
65756;BME280;52489;47.502;18.940;2023-02-18T03:57:39;98349.97;;;12.12;68.70
65756;BME280;52489;47.502;18.940;2023-02-18T03:58:42;98365.06;;;12.06;68.88
65756;BME280;52489;47.502;18.940;2023-02-18T03:59:45;98351.47;;;12.04;69.03
65756;BME280;52489;47.502;18.940;2023-02-18T04:00:48;98362.94;;;12.08;68.73
65756;BME280;52489;47.502;18.940;2023-02-18T04:01:51;98362.16;;;12.07;68.77
65756;BME280;52489;47.502;18.940;2023-02-18T04:02:54;98360.78;;;12.10;68.71
65756;BME280;52489;47.502;18.940;2023-02-18T04:03:57;98365.84;;;12.06;69.00
65756;BME280;52489;47.502;18.940;2023-02-18T04:05:00;98368.28;;;12.03;68.89
65756;BME280;52489;47.502;18.940;2023-02-18T04:06:04;98361.91;;;11.95;69.38
65756;BME280;52489;47.502;18.940;2023-02-18T04:07:07;98368.19;;;11.94;69.40
65756;BME280;52489;47.502;18.940;2023-02-18T04:08:10;98373.62;;;11.98;69.28
65756;BME280;52489;47.502;18.940;2023-02-18T04:09:13;98363.72;;;11.95;69.64
65756;BME280;52489;47.502;18.940;2023-02-18T04:10:16;98377.25;;;12.02;69.36
65756;BME280;52489;47.502;18.940;2023-02-18T04:11:20;98382.84;;;12.09;69.14
65756;BME280;52489;47.502;18.940;2023-02-18T04:12:22;98380.56;;;11.94;69.79
65756;BME280;52489;47.502;18.940;2023-02-18T04:13:26;98379.28;;;11.91;69.98
65756;BME280;52489;47.502;18.940;2023-02-18T04:14:29;98382.97;;;12.04;69.54
65756;BME280;52489;47.502;18.940;2023-02-18T04:15:32;98383.34;;;11.97;70.00
65756;BME280;52489;47.502;18.940;2023-02-18T04:16:37;98381.16;;;11.91;70.19
65756;BME280;52489;47.502;18.940;2023-02-18T04:17:40;98384.94;;;11.98;69.57
65756;BME280;52489;47.502;18.940;2023-02-18T04:18:43;98384.84;;;11.90;70.16
65756;BME280;52489;47.502;18.940;2023-02-18T04:19:46;98381.22;;;11.99;69.85
65756;BME280;52489;47.502;18.940;2023-02-18T04:20:49;98385.22;;;11.97;69.90
65756;BME280;52489;47.502;18.940;2023-02-18T04:21:52;98380.94;;;12.01;69.86
65756;BME280;52489;47.502;18.940;2023-02-18T04:22:55;98388.81;;;12.01;69.82
65756;BME280;52489;47.502;18.940;2023-02-18T04:23:59;98383.94;;;11.94;70.12
65756;BME280;52489;47.502;18.940;2023-02-18T04:25:02;98387.53;;;11.84;70.31
65756;BME280;52489;47.502;18.940;2023-02-18T04:26:05;98382.03;;;11.86;70.51
65756;BME280;52489;47.502;18.940;2023-02-18T04:27:09;98382.41;;;11.93;70.32
65756;BME280;52489;47.502;18.940;2023-02-18T04:28:13;98367.84;;;11.87;70.41
65756;BME280;52489;47.502;18.940;2023-02-18T04:29:18;98387.53;;;11.84;70.42
65756;BME280;52489;47.502;18.940;2023-02-18T04:30:22;98386.97;;;11.74;71.07
65756;BME280;52489;47.502;18.940;2023-02-18T04:31:25;98387.09;;;11.69;71.07
65756;BME280;52489;47.502;18.940;2023-02-18T04:32:28;98379.22;;;11.69;71.35
65756;BME280;52489;47.502;18.940;2023-02-18T04:33:31;98386.88;;;11.79;70.85
65756;BME280;52489;47.502;18.940;2023-02-18T04:34:34;98385.81;;;11.66;71.24
65756;BME280;52489;47.502;18.940;2023-02-18T04:35:37;98388.72;;;11.78;70.90
65756;BME280;52489;47.502;18.940;2023-02-18T04:36:43;98389.91;;;11.72;71.01
65756;BME280;52489;47.502;18.940;2023-02-18T04:37:46;98396.09;;;11.76;71.00
65756;BME280;52489;47.502;18.940;2023-02-18T04:38:50;98390.75;;;11.68;71.56
65756;BME280;52489;47.502;18.940;2023-02-18T04:39:53;98394.84;;;11.74;71.37
65756;BME280;52489;47.502;18.940;2023-02-18T04:40:57;98396.50;;;11.83;70.77
65756;BME280;52489;47.502;18.940;2023-02-18T04:42:00;98384.56;;;11.77;71.03
65756;BME280;52489;47.502;18.940;2023-02-18T04:43:03;98388.13;;;11.68;71.48
65756;BME280;52489;47.502;18.940;2023-02-18T04:44:06;98397.28;;;11.70;71.47
65756;BME280;52489;47.502;18.940;2023-02-18T04:45:09;98385.22;;;11.55;72.04
65756;BME280;52489;47.502;18.940;2023-02-18T04:46:12;98394.59;;;11.48;72.45
65756;BME280;52489;47.502;18.940;2023-02-18T04:47:16;98391.75;;;11.58;72.42
65756;BME280;52489;47.502;18.940;2023-02-18T04:48:19;98395.13;;;11.58;72.31
65756;BME280;52489;47.502;18.940;2023-02-18T04:49:22;98383.38;;;11.56;72.76
65756;BME280;52489;47.502;18.940;2023-02-18T04:50:26;98387.66;;;11.52;73.76
65756;BME280;52489;47.502;18.940;2023-02-18T04:51:29;98394.56;;;11.34;75.04
65756;BME280;52489;47.502;18.940;2023-02-18T04:52:33;98388.62;;;11.28;75.55
65756;BME280;52489;47.502;18.940;2023-02-18T04:53:36;98387.47;;;11.34;75.62
65756;BME280;52489;47.502;18.940;2023-02-18T04:54:39;98378.25;;;11.37;75.18
65756;BME280;52489;47.502;18.940;2023-02-18T04:55:42;98389.59;;;11.32;75.20
65756;BME280;52489;47.502;18.940;2023-02-18T04:56:45;98383.19;;;11.25;75.64
65756;BME280;52489;47.502;18.940;2023-02-18T04:57:48;98379.78;;;11.38;74.46
65756;BME280;52489;47.502;18.940;2023-02-18T04:58:51;98384.16;;;11.29;74.99
65756;BME280;52489;47.502;18.940;2023-02-18T04:59:54;98376.28;;;11.29;74.84
65756;BME280;52489;47.502;18.940;2023-02-18T05:01:01;98383.97;;;11.25;75.00
65756;BME280;52489;47.502;18.940;2023-02-18T05:02:05;98382.19;;;11.21;75.11
65756;BME280;52489;47.502;18.940;2023-02-18T05:03:08;98391.81;;;11.11;75.69
65756;BME280;52489;47.502;18.940;2023-02-18T05:04:11;98394.81;;;11.05;76.08
65756;BME280;52489;47.502;18.940;2023-02-18T05:05:14;98397.16;;;11.06;76.11
65756;BME280;52489;47.502;18.940;2023-02-18T05:06:17;98401.72;;;11.01;76.46
65756;BME280;52489;47.502;18.940;2023-02-18T05:07:20;98405.69;;;10.98;76.81
65756;BME280;52489;47.502;18.940;2023-02-18T05:08:23;98401.88;;;10.90;77.22
65756;BME280;52489;47.502;18.940;2023-02-18T05:09:26;98402.06;;;10.94;77.19
65756;BME280;52489;47.502;18.940;2023-02-18T05:10:30;98400.78;;;11.24;76.01
65756;BME280;52489;47.502;18.940;2023-02-18T05:11:33;98410.47;;;11.10;76.69
65756;BME280;52489;47.502;18.940;2023-02-18T05:12:36;98395.19;;;11.12;76.62
65756;BME280;52489;47.502;18.940;2023-02-18T05:13:39;98400.25;;;11.08;76.71
65756;BME280;52489;47.502;18.940;2023-02-18T05:14:42;98395.34;;;11.34;75.51
65756;BME280;52489;47.502;18.940;2023-02-18T05:15:45;98399.50;;;11.22;76.04
65756;BME280;52489;47.502;18.940;2023-02-18T05:16:48;98402.88;;;11.08;76.75
65756;BME280;52489;47.502;18.940;2023-02-18T05:17:51;98400.75;;;11.10;76.77
65756;BME280;52489;47.502;18.940;2023-02-18T05:18:54;98418.59;;;11.08;76.86
65756;BME280;52489;47.502;18.940;2023-02-18T05:19:57;98410.28;;;11.20;76.41
65756;BME280;52489;47.502;18.940;2023-02-18T05:21:00;98412.09;;;11.06;77.00
65756;BME280;52489;47.502;18.940;2023-02-18T05:22:03;98415.09;;;10.99;77.21
65756;BME280;52489;47.502;18.940;2023-02-18T05:23:06;98412.09;;;11.06;77.19
65756;BME280;52489;47.502;18.940;2023-02-18T05:24:10;98415.91;;;11.13;76.82
65756;BME280;52489;47.502;18.940;2023-02-18T05:25:13;98419.75;;;11.02;77.37
65756;BME280;52489;47.502;18.940;2023-02-18T05:26:16;98417.22;;;10.97;77.75
65756;BME280;52489;47.502;18.940;2023-02-18T05:27:19;98426.72;;;10.93;77.82
65756;BME280;52489;47.502;18.940;2023-02-18T05:28:23;98422.25;;;10.93;77.85
65756;BME280;52489;47.502;18.940;2023-02-18T05:29:26;98426.53;;;10.89;78.06
65756;BME280;52489;47.502;18.940;2023-02-18T05:30:29;98433.88;;;10.87;78.25
65756;BME280;52489;47.502;18.940;2023-02-18T05:31:32;98436.59;;;10.82;78.46
65756;BME280;52489;47.502;18.940;2023-02-18T05:32:35;98425.88;;;10.98;77.81
65756;BME280;52489;47.502;18.940;2023-02-18T05:33:38;98440.66;;;11.07;77.46
65756;BME280;52489;47.502;18.940;2023-02-18T05:34:42;98439.75;;;10.98;77.67
65756;BME280;52489;47.502;18.940;2023-02-18T05:35:45;98437.38;;;10.83;78.65
65756;BME280;52489;47.502;18.940;2023-02-18T05:36:49;98440.47;;;10.85;78.69
65756;BME280;52489;47.502;18.940;2023-02-18T05:37:52;98440.78;;;10.83;78.82
65756;BME280;52489;47.502;18.940;2023-02-18T05:38:55;98444.81;;;10.76;79.14
65756;BME280;52489;47.502;18.940;2023-02-18T05:39:58;98442.62;;;10.64;79.80
65756;BME280;52489;47.502;18.940;2023-02-18T05:41:01;98446.25;;;10.68;79.87
65756;BME280;52489;47.502;18.940;2023-02-18T05:42:05;98450.34;;;10.74;79.64
65756;BME280;52489;47.502;18.940;2023-02-18T05:43:08;98452.06;;;10.65;79.82
65756;BME280;52489;47.502;18.940;2023-02-18T05:44:11;98451.38;;;10.59;80.20
65756;BME280;52489;47.502;18.940;2023-02-18T05:45:32;98450.09;;;10.57;80.51
65756;BME280;52489;47.502;18.940;2023-02-18T05:46:35;98456.47;;;10.51;80.78
65756;BME280;52489;47.502;18.940;2023-02-18T05:47:39;98462.19;;;10.53;80.78
65756;BME280;52489;47.502;18.940;2023-02-18T05:48:42;98457.66;;;10.58;80.48
65756;BME280;52489;47.502;18.940;2023-02-18T05:49:45;98465.88;;;10.52;80.78
65756;BME280;52489;47.502;18.940;2023-02-18T05:50:48;98465.66;;;10.48;80.84
65756;BME280;52489;47.502;18.940;2023-02-18T05:51:55;98460.00;;;10.60;79.98
65756;BME280;52489;47.502;18.940;2023-02-18T05:52:59;98462.63;;;10.60;79.64
65756;BME280;52489;47.502;18.940;2023-02-18T05:54:02;98458.06;;;10.46;79.91
65756;BME280;52489;47.502;18.940;2023-02-18T05:55:05;98467.00;;;10.45;80.28
65756;BME280;52489;47.502;18.940;2023-02-18T05:56:09;98462.03;;;10.44;80.30
65756;BME280;52489;47.502;18.940;2023-02-18T05:57:13;98471.72;;;10.43;80.15
65756;BME280;52489;47.502;18.940;2023-02-18T05:58:17;98474.78;;;10.32;80.66
65756;BME280;52489;47.502;18.940;2023-02-18T05:59:20;98469.53;;;10.32;80.72
65756;BME280;52489;47.502;18.940;2023-02-18T06:00:23;98470.88;;;10.29;80.74
65756;BME280;52489;47.502;18.940;2023-02-18T06:01:27;98478.16;;;10.32;80.64
65756;BME280;52489;47.502;18.940;2023-02-18T06:02:30;98473.22;;;10.50;79.60
65756;BME280;52489;47.502;18.940;2023-02-18T06:03:34;98470.19;;;10.42;79.65
65756;BME280;52489;47.502;18.940;2023-02-18T06:04:36;98483.06;;;10.58;78.83
65756;BME280;52489;47.502;18.940;2023-02-18T06:05:41;98479.88;;;10.61;78.47
65756;BME280;52489;47.502;18.940;2023-02-18T06:06:44;98479.88;;;10.61;78.38
65756;BME280;52489;47.502;18.940;2023-02-18T06:07:48;98481.81;;;10.74;77.45
65756;BME280;52489;47.502;18.940;2023-02-18T06:08:51;98478.94;;;10.70;77.21
65756;BME280;52489;47.502;18.940;2023-02-18T06:09:54;98483.41;;;10.70;77.09
65756;BME280;52489;47.502;18.940;2023-02-18T06:10:57;98482.50;;;10.61;77.54
65756;BME280;52489;47.502;18.940;2023-02-18T06:12:00;98484.13;;;10.57;77.64
65756;BME280;52489;47.502;18.940;2023-02-18T06:13:03;98485.13;;;10.61;77.36
65756;BME280;52489;47.502;18.940;2023-02-18T06:14:07;98482.66;;;10.51;77.90
65756;BME280;52489;47.502;18.940;2023-02-18T06:15:10;98488.66;;;10.51;78.14
65756;BME280;52489;47.502;18.940;2023-02-18T06:16:13;98492.34;;;10.50;78.29
65756;BME280;52489;47.502;18.940;2023-02-18T06:17:16;98487.69;;;10.47;78.49
65756;BME280;52489;47.502;18.940;2023-02-18T06:18:20;98500.53;;;10.43;78.64
65756;BME280;52489;47.502;18.940;2023-02-18T06:19:23;98506.19;;;10.32;79.47